createdAt,value
2018-05-27T00:01:08.339Z,69.13
2018-05-27T00:03:36.780Z,69.50
2018-05-27T00:06:05.218Z,70.25
2018-05-27T00:08:33.667Z,70.04
2018-05-27T00:11:02.083Z,69.36
2018-05-27T00:13:30.556Z,69.29
2018-05-27T00:15:58.979Z,68.99
2018-05-27T00:18:27.431Z,68.61
2018-05-27T00:20:55.855Z,67.90
2018-05-27T00:23:24.299Z,67.45
2018-05-27T00:25:52.713Z,67.14
2018-05-27T00:28:21.177Z,67.33
2018-05-27T00:30:49.588Z,67.38
2018-05-27T00:33:18.031Z,67.40
2018-05-27T00:35:46.449Z,67.43
2018-05-27T00:38:14.923Z,67.96
2018-05-27T00:40:43.329Z,67.75
2018-05-27T00:43:11.803Z,67.94
2018-05-27T00:45:40.231Z,67.82
2018-05-27T00:48:08.699Z,67.76
2018-05-27T00:50:37.906Z,66.97
2018-05-27T00:53:07.137Z,66.97
2018-05-27T00:55:35.609Z,66.83
2018-05-27T00:58:04.091Z,66.78
2018-05-27T01:00:32.521Z,66.34
2018-05-27T01:03:00.963Z,65.64
2018-05-27T01:05:29.441Z,65.17
2018-05-27T01:07:57.927Z,65.55
2018-05-27T01:10:26.350Z,65.61
2018-05-27T01:12:54.797Z,65.42
2018-05-27T01:15:23.246Z,65.38
2018-05-27T01:17:51.784Z,65.54
2018-05-27T01:20:20.225Z,65.39
2018-05-27T01:22:49.494Z,65.14
2018-05-27T01:25:17.942Z,64.47
2018-05-27T01:27:46.415Z,64.94
2018-05-27T01:30:15.688Z,64.95
2018-05-27T01:32:44.138Z,64.37
2018-05-27T01:35:12.552Z,63.41
2018-05-27T01:37:41.021Z,63.68
2018-05-27T01:40:09.464Z,63.60
2018-05-27T01:42:37.925Z,64.43
2018-05-27T01:45:07.157Z,64.62
2018-05-27T01:47:35.616Z,63.99
2018-05-27T01:50:04.084Z,63.24
2018-05-27T01:52:32.569Z,63.33
2018-05-27T01:55:01.011Z,63.26
2018-05-27T01:57:29.490Z,63.59
2018-05-27T01:59:57.934Z,63.60
2018-05-27T02:02:26.439Z,63.46
2018-05-27T02:04:55.703Z,63.38
2018-05-27T02:07:24.163Z,62.53
2018-05-27T02:09:52.598Z,62.84
2018-05-27T02:12:21.083Z,63.02
2018-05-27T02:14:49.604Z,62.54
2018-05-27T02:17:18.064Z,62.82
2018-05-27T02:19:47.287Z,62.55
2018-05-27T02:22:15.716Z,62.88
2018-05-27T02:24:44.232Z,63.02
2018-05-27T02:27:12.720Z,63.23
2018-05-27T02:29:41.198Z,62.11
2018-05-27T02:32:09.671Z,62.15
2018-05-27T02:34:39.191Z,62.47
2018-05-27T02:37:09.573Z,61.77
2018-05-27T02:39:38.156Z,61.85
2018-05-27T02:42:06.607Z,61.42
2018-05-27T02:44:35.853Z,61.81
2018-05-27T02:47:04.280Z,61.39
2018-05-27T02:49:32.744Z,61.40
2018-05-27T02:52:01.187Z,61.16
2018-05-27T02:54:29.670Z,60.67
2018-05-27T02:56:58.143Z,60.52
2018-05-27T02:59:26.615Z,60.61
2018-05-27T03:01:55.810Z,60.59
2018-05-27T03:04:24.354Z,60.62
2018-05-27T03:06:52.805Z,60.16
2018-05-27T03:09:21.272Z,60.31
2018-05-27T03:11:50.498Z,60.46
2018-05-27T03:14:18.948Z,60.26
2018-05-27T03:16:47.384Z,60.32
2018-05-27T03:19:15.843Z,59.82
2018-05-27T03:21:45.036Z,60.18
2018-05-27T03:24:14.298Z,60.98
2018-05-27T03:26:42.732Z,61.03
2018-05-27T03:29:11.999Z,60.06
2018-05-27T03:31:40.432Z,60.66
2018-05-27T03:34:08.900Z,60.50
2018-05-27T03:36:38.071Z,60.23
2018-05-27T03:39:06.534Z,60.45
2018-05-27T03:41:34.947Z,60.64
2018-05-27T03:44:03.447Z,60.29
2018-05-27T03:46:32.634Z,60.64
2018-05-27T03:49:01.085Z,60.43
2018-05-27T03:51:29.528Z,60.62
2018-05-27T03:53:58.741Z,60.82
2018-05-27T03:56:27.148Z,60.93
2018-05-27T03:58:55.594Z,60.92
2018-05-27T04:01:24.780Z,61.16
2018-05-27T04:04:10.828Z,61.34
2018-05-27T04:06:56.872Z,61.99
2018-05-27T04:09:26.083Z,62.47
2018-05-27T04:11:54.491Z,62.63
2018-05-27T04:14:22.941Z,62.75
2018-05-27T04:16:52.113Z,62.66
2018-05-27T04:19:20.563Z,62.69
2018-05-27T04:21:48.985Z,63.04
2018-05-27T04:24:17.440Z,63.62
2018-05-27T04:26:45.859Z,64.06
2018-05-27T04:29:14.279Z,64.33
2018-05-27T04:31:42.724Z,64.78
2018-05-27T04:34:11.141Z,65.14
2018-05-27T04:36:39.594Z,65.34
2018-05-27T04:39:08.012Z,65.34
2018-05-27T04:41:36.476Z,65.89
2018-05-27T04:44:05.645Z,66.08
2018-05-27T04:46:34.103Z,66.16
2018-05-27T04:49:02.527Z,66.51
2018-05-27T04:51:31.038Z,66.67
2018-05-27T04:54:00.231Z,67.02
2018-05-27T04:56:28.686Z,67.19
2018-05-27T04:58:57.110Z,66.74
2018-05-27T05:01:26.334Z,66.65
2018-05-27T05:03:54.789Z,65.64
2018-05-27T05:06:23.230Z,65.22
2018-05-27T05:08:51.665Z,64.81
2018-05-27T05:11:20.107Z,65.25
2018-05-27T05:13:48.539Z,64.94
2018-05-27T05:16:17.765Z,63.22
2018-05-27T05:18:46.197Z,62.95
2018-05-27T05:21:14.686Z,62.58
2018-05-27T05:23:43.153Z,64.05
2018-05-27T05:26:11.633Z,64.75
2018-05-27T05:28:40.077Z,64.32
2018-05-27T05:31:08.564Z,63.84
2018-05-27T05:33:36.988Z,62.59
2018-05-27T05:36:05.470Z,62.31
2018-05-27T05:38:33.905Z,61.49
2018-05-27T05:41:03.189Z,60.71
2018-05-27T05:43:31.677Z,59.18
2018-05-27T05:46:00.184Z,57.33
2018-05-27T05:48:29.415Z,58.00
2018-05-27T05:50:57.939Z,57.28
2018-05-27T05:53:26.404Z,56.65
2018-05-27T05:55:54.944Z,56.90
2018-05-27T05:58:24.167Z,56.06
2018-05-27T06:00:52.726Z,57.33
2018-05-27T06:03:21.954Z,58.67
2018-05-27T06:05:50.464Z,59.59
2018-05-27T06:08:18.911Z,60.33
2018-05-27T06:10:47.414Z,58.66
2018-05-27T06:13:15.853Z,58.19
2018-05-27T06:15:44.278Z,58.44
2018-05-27T06:18:12.735Z,58.49
2018-05-27T06:20:41.978Z,56.85
2018-05-27T06:23:10.458Z,56.83
2018-05-27T06:25:38.914Z,57.26
2018-05-27T06:28:08.135Z,58.15
2018-05-27T06:30:36.570Z,57.86
2018-05-27T06:33:05.050Z,58.56
2018-05-27T06:35:33.481Z,58.12
2018-05-27T06:38:02.065Z,58.42
2018-05-27T06:40:30.689Z,59.04
2018-05-27T06:42:59.224Z,58.56
2018-05-27T06:45:28.459Z,57.43
2018-05-27T06:47:57.047Z,57.67
2018-05-27T06:50:25.492Z,57.24
2018-05-27T06:52:53.954Z,54.07
2018-05-27T06:55:22.402Z,54.14
2018-05-27T06:57:50.860Z,55.59
2018-05-27T07:00:20.046Z,55.31
2018-05-27T07:02:48.514Z,53.92
2018-05-27T07:05:16.974Z,55.03
2018-05-27T07:07:45.449Z,55.67
2018-05-27T07:10:13.864Z,53.38
2018-05-27T07:12:42.323Z,52.29
2018-05-27T07:15:11.526Z,54.49
2018-05-27T07:17:39.982Z,54.17
2018-05-27T07:20:08.419Z,55.35
2018-05-27T07:22:36.903Z,56.58
2018-05-27T07:25:05.322Z,54.46
2018-05-27T07:27:34.575Z,56.20
2018-05-27T07:30:03.055Z,54.73
2018-05-27T07:32:31.573Z,54.19
2018-05-27T07:34:59.993Z,54.55
2018-05-27T07:37:28.459Z,53.68
2018-05-27T07:39:56.890Z,53.89
2018-05-27T07:42:25.412Z,51.22
2018-05-27T07:44:53.853Z,52.74
2018-05-27T07:47:22.335Z,51.27
2018-05-27T07:49:50.819Z,51.46
2018-05-27T07:52:19.273Z,50.90
2018-05-27T07:54:47.756Z,50.82
2018-05-27T07:57:16.234Z,51.74
2018-05-27T07:59:44.693Z,50.69
2018-05-27T08:02:13.113Z,50.58
2018-05-27T08:04:42.329Z,49.93
2018-05-27T08:07:11.539Z,48.48
2018-05-27T08:09:40.754Z,49.65
2018-05-27T08:12:09.177Z,49.16
2018-05-27T08:14:37.644Z,48.56
2018-05-27T08:17:06.080Z,49.70
2018-05-27T08:19:34.533Z,49.71
2018-05-27T08:22:03.863Z,49.56
2018-05-27T08:24:33.283Z,47.35
2018-05-27T08:27:02.467Z,47.56
2018-05-27T08:29:32.467Z,48.84
2018-05-27T08:32:01.683Z,49.34
2018-05-27T08:34:30.198Z,52.00
2018-05-27T08:36:58.631Z,47.49
2018-05-27T08:39:27.085Z,48.34
2018-05-27T08:41:55.510Z,50.11
2018-05-27T08:44:23.973Z,47.48
2018-05-27T08:46:52.403Z,48.51
2018-05-27T08:49:21.624Z,47.09
2018-05-27T08:51:50.814Z,47.68
2018-05-27T08:54:20.077Z,47.63
2018-05-27T08:56:48.512Z,48.80
2018-05-27T08:59:17.739Z,46.08
2018-05-27T09:01:46.273Z,46.48
2018-05-27T09:04:14.726Z,46.13
2018-05-27T09:06:43.135Z,45.55
2018-05-27T09:09:11.759Z,46.45
2018-05-27T09:11:40.986Z,46.89
2018-05-27T09:14:09.434Z,45.45
2018-05-27T09:16:37.856Z,46.16
2018-05-27T09:19:06.306Z,43.91
2018-05-27T09:21:35.496Z,43.82
2018-05-27T09:24:03.935Z,44.33
2018-05-27T09:26:32.381Z,43.82
2018-05-27T09:29:01.589Z,47.37
2018-05-27T09:31:30.764Z,44.05
2018-05-27T09:33:59.863Z,43.96
2018-05-27T09:36:28.275Z,42.95
2018-05-27T09:38:57.482Z,45.11
2018-05-27T09:41:26.668Z,43.76
2018-05-27T09:43:55.932Z,44.93
2018-05-27T09:46:24.356Z,44.57
2018-05-27T09:48:53.677Z,42.71
2018-05-27T09:51:22.128Z,47.93
2018-05-27T09:53:50.631Z,50.36
2018-05-27T09:56:19.967Z,54.32
2018-05-27T09:58:48.445Z,57.11
2018-05-27T10:01:16.972Z,57.29
2018-05-27T10:03:46.061Z,58.35
2018-05-27T10:06:14.592Z,59.29
2018-05-27T10:08:43.801Z,59.05
2018-05-27T10:11:13.013Z,59.96
2018-05-27T10:13:41.436Z,60.68
2018-05-27T10:16:09.901Z,59.83
2018-05-27T10:18:38.372Z,59.21
2018-05-27T10:21:06.837Z,62.40
2018-05-27T10:23:36.060Z,64.32
2018-05-27T10:26:04.555Z,64.35
2018-05-27T10:28:32.973Z,63.34
2018-05-27T10:31:01.444Z,64.18
2018-05-27T10:33:29.855Z,63.95
2018-05-27T10:35:58.325Z,64.03
2018-05-27T10:38:26.761Z,65.13
2018-05-27T10:40:55.237Z,67.32
2018-05-27T10:43:23.651Z,68.94
2018-05-27T10:45:52.115Z,68.31
2018-05-27T10:48:21.314Z,69.23
2018-05-27T10:50:50.572Z,69.44
2018-05-27T10:53:19.009Z,68.69
2018-05-27T10:55:47.475Z,68.55
2018-05-27T10:58:16.660Z,68.56
2018-05-27T11:00:45.101Z,68.52
2018-05-27T11:03:13.540Z,68.24
2018-05-27T11:05:41.992Z,68.30
2018-05-27T11:08:10.422Z,68.77
2018-05-27T11:10:39.676Z,69.10
2018-05-27T11:13:08.140Z,69.45
2018-05-27T11:15:36.595Z,70.09
2018-05-27T11:18:05.781Z,69.97
2018-05-27T11:20:35.045Z,70.31
2018-05-27T11:23:03.520Z,72.10
2018-05-27T11:25:32.036Z,73.18
2018-05-27T11:28:00.483Z,72.55
2018-05-27T11:30:28.980Z,72.52
2018-05-27T11:32:57.423Z,72.06
2018-05-27T11:35:26.660Z,71.54
2018-05-27T11:37:55.099Z,72.26
2018-05-27T11:40:23.553Z,72.04
2018-05-27T11:42:51.968Z,71.33
2018-05-27T11:45:20.460Z,71.53
2018-05-27T11:47:48.902Z,72.16
2018-05-27T11:50:17.351Z,72.19
2018-05-27T11:52:45.769Z,71.92
2018-05-27T11:55:14.240Z,72.08
2018-05-27T11:57:42.699Z,73.22
2018-05-27T12:00:11.187Z,73.45
2018-05-27T12:02:39.711Z,74.15
2018-05-27T12:05:08.169Z,73.64
2018-05-27T12:07:36.587Z,74.32
2018-05-27T12:10:05.110Z,74.39
2018-05-27T12:12:34.307Z,75.19
2018-05-27T12:15:02.757Z,75.37
2018-05-27T12:17:31.199Z,74.25
2018-05-27T12:19:59.618Z,74.27
2018-05-27T12:22:28.116Z,73.81
2018-05-27T12:24:56.569Z,74.27
2018-05-27T12:27:25.159Z,74.11
2018-05-27T12:29:53.616Z,74.38
2018-05-27T12:32:22.111Z,73.96
2018-05-27T12:34:51.335Z,74.46
2018-05-27T12:37:19.882Z,74.67
2018-05-27T12:39:48.342Z,72.97
2018-05-27T12:42:16.805Z,74.14
2018-05-27T12:44:45.246Z,74.51
2018-05-27T12:47:14.559Z,74.40
2018-05-27T12:49:43.031Z,74.03
2018-05-27T12:52:12.305Z,73.74
2018-05-27T12:54:40.776Z,73.79
2018-05-27T12:57:09.231Z,73.46
2018-05-27T12:59:37.679Z,73.41
2018-05-27T13:02:06.968Z,73.32
2018-05-27T13:04:35.398Z,73.39
2018-05-27T13:07:03.879Z,73.54
2018-05-27T13:09:33.129Z,73.26
2018-05-27T13:12:01.600Z,73.04
2018-05-27T13:14:30.098Z,72.64
2018-05-27T13:16:58.872Z,72.76
2018-05-27T13:19:27.037Z,73.33
2018-05-27T13:21:55.516Z,74.10
2018-05-27T13:24:24.000Z,74.35
2018-05-27T13:26:52.478Z,75.37
2018-05-27T13:29:20.905Z,75.75
2018-05-27T13:31:49.779Z,76.11
2018-05-27T13:34:18.239Z,75.39
2018-05-27T13:36:47.486Z,74.83
2018-05-27T13:39:15.946Z,74.44
2018-05-27T13:41:44.393Z,74.66
2018-05-27T13:44:12.877Z,75.78
2018-05-27T13:46:41.391Z,75.03
2018-05-27T13:49:09.842Z,74.71
2018-05-27T13:51:38.307Z,74.68
2018-05-27T13:54:06.762Z,74.24
2018-05-27T13:56:35.272Z,71.99
2018-05-27T13:59:03.725Z,72.11
2018-05-27T14:01:32.211Z,72.93
2018-05-27T14:04:00.640Z,72.82
2018-05-27T14:06:29.125Z,72.11
2018-05-27T14:08:57.580Z,71.07
2018-05-27T14:11:26.075Z,70.58
2018-05-27T14:13:54.556Z,69.39
2018-05-27T14:16:23.056Z,69.52
2018-05-27T14:18:51.568Z,68.00
2018-05-27T14:21:20.062Z,67.97
2018-05-27T14:23:49.330Z,62.58
2018-05-27T14:26:17.845Z,66.12
2018-05-27T14:28:46.331Z,71.78
2018-05-27T14:31:15.546Z,70.67
2018-05-27T14:33:44.802Z,65.93
2018-05-27T14:36:13.276Z,68.48
2018-05-27T14:38:42.291Z,69.63
2018-05-27T14:41:11.466Z,67.95
2018-05-27T14:43:40.701Z,66.15
2018-05-27T14:46:09.175Z,65.46
2018-05-27T14:48:37.677Z,66.45
2018-05-27T14:51:06.162Z,65.92
2018-05-27T14:53:34.709Z,65.26
2018-05-27T14:56:03.190Z,64.41
2018-05-27T14:58:31.683Z,64.56
2018-05-27T15:01:00.176Z,65.18
2018-05-27T15:03:28.719Z,65.72
2018-05-27T15:05:57.167Z,64.72
2018-05-27T15:08:25.640Z,65.24
2018-05-27T15:10:54.108Z,65.71
2018-05-27T15:13:22.589Z,64.60
2018-05-27T15:15:51.043Z,65.79
2018-05-27T15:18:19.545Z,65.75
2018-05-27T15:20:48.739Z,64.04
2018-05-27T15:23:18.009Z,59.08
2018-05-27T15:25:46.455Z,58.25
2018-05-27T15:28:14.953Z,60.13
2018-05-27T15:30:43.403Z,62.20
2018-05-27T15:33:11.896Z,60.67
2018-05-27T15:35:40.326Z,58.31
2018-05-27T15:38:08.798Z,56.47
2018-05-27T15:40:37.220Z,57.18
2018-05-27T15:43:05.658Z,58.49
2018-05-27T15:45:34.565Z,58.45
2018-05-27T15:48:03.009Z,57.95
2018-05-27T15:50:32.203Z,60.87
2018-05-27T15:53:01.424Z,63.12
2018-05-27T15:55:29.827Z,63.15
2018-05-27T15:57:58.280Z,64.56
2018-05-27T16:00:27.451Z,64.07
2018-05-27T16:02:55.899Z,61.97
2018-05-27T16:05:24.373Z,60.75
2018-05-27T16:07:53.670Z,58.95
2018-05-27T16:10:22.089Z,57.70
2018-05-27T16:12:50.525Z,56.24
2018-05-27T16:15:19.699Z,55.26
2018-05-27T16:17:48.161Z,55.36
2018-05-27T16:20:16.562Z,55.44
2018-05-27T16:22:45.046Z,56.10
2018-05-27T16:25:13.515Z,55.59
2018-05-27T16:27:41.942Z,56.55
2018-05-27T16:30:11.169Z,58.24
2018-05-27T16:32:39.592Z,59.32
2018-05-27T16:35:08.043Z,59.23
2018-05-27T16:37:36.484Z,58.60
2018-05-27T16:40:04.957Z,58.51
2018-05-27T16:42:33.405Z,58.94
2018-05-27T16:45:01.879Z,57.32
2018-05-27T16:47:30.385Z,57.78
2018-05-27T16:49:58.831Z,57.86
2018-05-27T16:52:27.279Z,59.46
2018-05-27T16:54:55.723Z,57.23
2018-05-27T16:57:24.216Z,60.23
2018-05-27T16:59:52.695Z,62.11
2018-05-27T17:02:21.143Z,60.57
2018-05-27T17:04:49.602Z,60.46
2018-05-27T17:07:18.002Z,62.71
2018-05-27T17:09:46.482Z,62.58
2018-05-27T17:12:14.864Z,62.56
2018-05-27T17:14:43.311Z,63.58
2018-05-27T17:17:11.706Z,63.37
2018-05-27T17:19:40.129Z,60.20
2018-05-27T17:22:09.470Z,59.00
2018-05-27T17:24:37.921Z,60.01
2018-05-27T17:27:07.123Z,59.75
2018-05-27T17:29:36.344Z,59.18
2018-05-27T17:32:04.818Z,60.61
2018-05-27T17:34:34.073Z,62.49
2018-05-27T17:37:02.536Z,61.98
2018-05-27T17:39:30.982Z,61.33
2018-05-27T17:41:59.409Z,62.08
2018-05-27T17:44:27.853Z,61.81
2018-05-27T17:46:57.043Z,63.72
2018-05-27T17:49:25.494Z,64.80
2018-05-27T17:51:53.915Z,65.48
2018-05-27T17:54:22.376Z,65.23
2018-05-27T17:56:50.810Z,65.52
2018-05-27T17:59:20.041Z,65.64
2018-05-27T18:01:48.459Z,65.93
2018-05-27T18:04:16.943Z,66.66
2018-05-27T18:06:45.394Z,66.72
2018-05-27T18:09:13.836Z,66.69
2018-05-27T18:11:42.267Z,66.53
2018-05-27T18:14:10.767Z,67.31
2018-05-27T18:16:39.222Z,67.33
2018-05-27T18:19:07.716Z,67.53
2018-05-27T18:21:36.144Z,67.97
2018-05-27T18:24:04.759Z,68.15
2018-05-27T18:26:33.431Z,69.01
2018-05-27T18:29:02.625Z,69.23
2018-05-27T18:31:31.267Z,68.97
2018-05-27T18:33:59.731Z,69.31
2018-05-27T18:36:28.939Z,69.27
2018-05-27T18:38:57.391Z,69.60
2018-05-27T18:41:25.868Z,69.57
2018-05-27T18:43:54.285Z,70.28
2018-05-27T18:46:23.523Z,71.06
2018-05-27T18:48:52.932Z,71.20
2018-05-27T18:51:21.417Z,71.09
2018-05-27T18:53:50.632Z,70.88
2018-05-27T18:56:19.156Z,71.92
2018-05-27T18:58:48.356Z,72.27
2018-05-27T19:01:16.817Z,72.57
2018-05-27T19:03:45.290Z,72.53
2018-05-27T19:06:13.832Z,72.81
2018-05-27T19:08:44.129Z,72.99
2018-05-27T19:11:13.434Z,72.97
2018-05-27T19:13:42.655Z,73.24
2018-05-27T19:16:11.207Z,72.99
2018-05-27T19:18:39.738Z,73.41
2018-05-27T19:21:11.019Z,72.73
2018-05-27T19:23:39.656Z,73.44
2018-05-27T19:26:08.197Z,73.90
2018-05-27T19:28:36.795Z,73.92
2018-05-27T19:31:05.334Z,73.90
2018-05-27T19:33:34.751Z,74.29
2018-05-27T19:36:03.211Z,74.37
2018-05-27T19:38:32.398Z,74.39
2018-05-27T19:41:00.850Z,74.25
2018-05-27T19:43:29.306Z,73.67
2018-05-27T19:45:57.837Z,73.74
2018-05-27T19:48:26.289Z,73.50
2018-05-27T19:50:54.783Z,73.19
2018-05-27T19:53:23.391Z,73.35
2018-05-27T19:55:51.880Z,73.20
2018-05-27T19:58:20.386Z,73.28
2018-05-27T20:00:49.032Z,73.11
2018-05-27T20:03:17.631Z,72.96
2018-05-27T20:05:46.102Z,72.38
2018-05-27T20:08:14.546Z,71.86
2018-05-27T20:10:43.820Z,71.75
2018-05-27T20:13:12.351Z,71.86
2018-05-27T20:15:41.788Z,72.20
2018-05-27T20:18:10.379Z,72.23
2018-05-27T20:20:38.858Z,72.45
2018-05-27T20:23:07.389Z,72.82
2018-05-27T20:25:35.863Z,72.93
2018-05-27T20:28:04.402Z,72.87
2018-05-27T20:30:33.027Z,73.08
2018-05-27T20:33:01.510Z,73.32
2018-05-27T20:35:30.031Z,73.03
2018-05-27T20:37:58.490Z,72.69
2018-05-27T20:40:27.095Z,73.00
2018-05-27T20:42:55.561Z,72.67
2018-05-27T20:45:24.170Z,72.67
2018-05-27T20:47:52.821Z,72.78
2018-05-27T20:50:21.352Z,72.42
2018-05-27T20:52:50.702Z,72.08
2018-05-27T20:55:19.338Z,71.58
2018-05-27T20:57:47.850Z,71.68
2018-05-27T21:00:16.499Z,72.21
2018-05-27T21:02:45.077Z,72.16
2018-05-27T21:05:13.602Z,71.69
2018-05-27T21:07:42.989Z,71.20
2018-05-27T21:10:11.439Z,71.65
2018-05-27T21:12:40.012Z,71.96
2018-05-27T21:15:08.449Z,71.88
2018-05-27T21:17:37.058Z,71.75
2018-05-27T21:20:06.388Z,71.54
2018-05-27T21:22:34.979Z,71.58
2018-05-27T21:25:04.172Z,71.61
2018-05-27T21:27:32.661Z,71.45
2018-05-27T21:30:01.081Z,71.39
2018-05-27T21:32:29.550Z,71.63
2018-05-27T21:34:58.009Z,72.00
2018-05-27T21:37:26.499Z,72.15
2018-05-27T21:39:54.954Z,72.44
2018-05-27T21:42:23.490Z,72.38
2018-05-27T21:44:51.921Z,72.65
2018-05-27T21:47:20.372Z,72.85
2018-05-27T21:49:48.796Z,72.91
2018-05-27T21:52:17.256Z,73.01
2018-05-27T21:54:45.715Z,73.11
2018-05-27T21:57:14.151Z,73.26
2018-05-27T21:59:43.353Z,73.42
2018-05-27T22:02:11.847Z,73.55
2018-05-27T22:04:40.283Z,73.57
2018-05-27T22:07:08.756Z,73.92
2018-05-27T22:09:37.172Z,73.99
2018-05-27T22:12:05.617Z,74.01
2018-05-27T22:14:34.041Z,74.21
2018-05-27T22:17:02.471Z,74.16
2018-05-27T22:19:30.899Z,74.36
2018-05-27T22:21:59.353Z,74.52
2018-05-27T22:24:27.842Z,74.56
2018-05-27T22:26:56.357Z,74.67
2018-05-27T22:29:24.819Z,74.66
2018-05-27T22:31:53.303Z,74.56
2018-05-27T22:34:22.491Z,74.92
2018-05-27T22:36:50.963Z,74.76
2018-05-27T22:39:19.416Z,74.84
2018-05-27T22:41:47.866Z,74.81
2018-05-27T22:44:16.293Z,74.60
2018-05-27T22:46:44.702Z,74.53
2018-05-27T22:49:13.222Z,74.48
2018-05-27T22:51:42.421Z,74.71
2018-05-27T22:54:10.867Z,74.88
2018-05-27T22:56:40.076Z,74.92
2018-05-27T22:59:09.337Z,74.93
2018-05-27T23:01:37.738Z,74.67
2018-05-27T23:04:06.201Z,74.62
2018-05-27T23:06:34.661Z,74.60
2018-05-27T23:09:03.179Z,75.11
2018-05-27T23:11:31.640Z,75.73
2018-05-27T23:14:00.133Z,76.15
2018-05-27T23:16:28.627Z,76.39
2018-05-27T23:18:57.107Z,76.35
2018-05-27T23:21:25.584Z,76.12
2018-05-27T23:23:54.090Z,75.79
2018-05-27T23:26:22.585Z,75.94
2018-05-27T23:28:51.109Z,76.15
2018-05-27T23:31:19.586Z,76.40
2018-05-27T23:33:48.863Z,76.65
2018-05-27T23:36:17.318Z,76.79
2018-05-27T23:38:45.821Z,77.32
2018-05-27T23:41:15.155Z,77.85
2018-05-27T23:43:44.496Z,78.16
2018-05-27T23:46:12.975Z,78.37
2018-05-27T23:48:41.435Z,78.47
2018-05-27T23:51:10.740Z,78.80
2018-05-27T23:53:39.974Z,79.31
2018-05-27T23:56:08.403Z,79.72
2018-05-27T23:58:36.860Z,79.85
